createdAt,value
2023-03-12T00:02:42.165Z,15.65
2023-03-12T00:05:29.046Z,14.43
2023-03-12T00:08:24.067Z,13.52
2023-03-12T00:11:20.054Z,15.93
2023-03-12T00:14:09.074Z,15.10
2023-03-12T00:16:49.549Z,13.48
2023-03-12T00:19:36.074Z,13.45
2023-03-12T00:22:16.870Z,14.57
2023-03-12T00:25:08.079Z,15.32
2023-03-12T00:27:55.138Z,13.27
2023-03-12T00:30:36.058Z,13.35
2023-03-12T00:33:16.563Z,14.63
2023-03-12T00:36:03.101Z,12.20
2023-03-12T00:38:50.134Z,13.05
2023-03-12T00:41:31.070Z,12.50
2023-03-12T00:44:18.057Z,11.60
2023-03-12T00:46:58.220Z,11.15
2023-03-12T00:49:45.051Z,12.95
2023-03-12T00:52:32.061Z,13.13
2023-03-12T00:55:12.670Z,10.82
2023-03-12T00:57:59.072Z,12.23
2023-03-12T01:00:46.158Z,13.02
2023-03-12T01:03:26.206Z,10.73
2023-03-12T01:06:14.099Z,12.48
2023-03-12T01:08:55.390Z,11.70
2023-03-12T01:11:43.074Z,9.68
2023-03-12T01:14:24.175Z,11.95
2023-03-12T01:17:11.085Z,12.10
2023-03-12T01:19:58.068Z,10.73
2023-03-12T01:22:38.789Z,11.90
2023-03-12T01:25:25.066Z,10.20
2023-03-12T01:28:06.738Z,13.27
2023-03-12T01:30:53.091Z,10.73
2023-03-12T01:33:40.072Z,8.93
2023-03-12T01:36:36.122Z,8.68
2023-03-12T01:39:23.061Z,11.63
2023-03-12T01:42:10.065Z,10.40
2023-03-12T01:44:57.054Z,9.13
2023-03-12T01:47:46.062Z,11.18
2023-03-12T01:50:33.179Z,10.63
2023-03-12T01:56:00.129Z,12.05
2023-03-12T01:58:43.067Z,10.77
2023-03-12T02:01:32.207Z,10.57
2023-03-12T02:04:13.074Z,9.82
2023-03-12T02:07:03.034Z,9.80
2023-03-12T02:09:54.075Z,8.80
2023-03-12T02:12:34.567Z,9.02
2023-03-12T02:15:22.068Z,12.27
2023-03-12T02:18:11.118Z,8.15
2023-03-12T02:21:22.063Z,10.18
2023-03-12T02:24:26.079Z,8.32
2023-03-12T02:27:08.117Z,8.15
2023-03-12T02:29:55.074Z,8.43
2023-03-12T02:35:26.071Z,8.60
2023-03-12T02:38:13.063Z,7.20
2023-03-12T02:40:55.755Z,8.88
2023-03-12T02:43:42.051Z,13.32
2023-03-12T02:46:29.045Z,8.60
2023-03-12T02:49:19.070Z,7.32
2023-03-12T02:52:06.143Z,11.82
2023-03-12T02:54:46.064Z,8.65
2023-03-12T02:57:26.577Z,8.25
2023-03-12T03:00:13.058Z,7.97
2023-03-12T03:03:06.099Z,8.68
2023-03-12T03:05:53.055Z,9.52
2023-03-12T03:08:47.074Z,5.97
2023-03-12T03:11:34.064Z,9.35
2023-03-12T03:14:15.176Z,9.02
2023-03-12T03:17:03.066Z,7.30
2023-03-12T03:19:50.063Z,6.45
2023-03-12T03:22:37.068Z,7.13
2023-03-12T03:25:18.169Z,7.43
2023-03-12T03:28:05.137Z,6.93
2023-03-12T03:30:45.174Z,5.53
2023-03-12T03:33:32.074Z,10.95
2023-03-12T03:36:22.064Z,11.45
2023-03-12T03:39:10.547Z,6.32
2023-03-12T03:41:58.086Z,9.70
2023-03-12T03:44:46.115Z,6.40
2023-03-12T03:47:28.073Z,8.85
2023-03-12T03:50:16.237Z,7.35
2023-03-12T03:52:56.049Z,7.43
2023-03-12T03:55:38.346Z,5.43
2023-03-12T03:58:26.057Z,7.68
2023-03-12T04:01:14.143Z,7.80
2023-03-12T04:03:55.061Z,6.68
2023-03-12T04:06:37.603Z,6.60
2023-03-12T04:09:24.063Z,8.63
2023-03-12T04:12:11.110Z,4.88
2023-03-12T04:14:51.166Z,6.97
2023-03-12T04:17:38.080Z,7.32
2023-03-12T04:20:19.138Z,6.25
2023-03-12T04:25:48.140Z,5.45
2023-03-12T04:28:35.064Z,6.00
2023-03-12T04:31:18.285Z,8.55
2023-03-12T04:34:05.090Z,8.27
2023-03-12T04:36:52.076Z,7.82
2023-03-12T04:39:39.073Z,6.82
2023-03-12T04:42:20.132Z,5.90
2023-03-12T04:45:07.056Z,6.68
2023-03-12T04:47:51.143Z,8.23
2023-03-12T04:50:38.061Z,6.07
2023-03-12T04:53:19.178Z,5.45
2023-03-12T04:56:06.076Z,8.15
2023-03-12T04:58:53.086Z,7.20
2023-03-12T05:01:36.725Z,6.53
2023-03-12T05:04:31.905Z,7.53
2023-03-12T05:07:13.590Z,8.05
2023-03-12T05:10:00.104Z,6.97
2023-03-12T05:12:47.138Z,6.50
2023-03-12T05:15:27.092Z,7.25
2023-03-12T05:18:07.575Z,9.55
2023-03-12T05:20:54.069Z,6.82
2023-03-12T05:26:43.086Z,9.90
2023-03-12T05:29:33.115Z,7.85
2023-03-12T05:32:21.136Z,6.18
2023-03-12T05:35:01.625Z,6.82
2023-03-12T05:37:49.099Z,7.80
2023-03-12T05:40:29.784Z,8.18
2023-03-12T05:43:16.069Z,9.88
2023-03-12T05:46:00.792Z,8.40
2023-03-12T05:48:48.070Z,6.10
2023-03-12T05:51:28.588Z,7.80
2023-03-12T05:54:16.070Z,11.55
2023-03-12T05:57:04.147Z,6.70
2023-03-12T05:59:45.085Z,8.80
2023-03-12T06:02:32.144Z,7.68
2023-03-12T06:05:20.082Z,9.68
2023-03-12T06:08:14.059Z,10.55
2023-03-12T06:11:02.077Z,11.48
2023-03-12T06:13:43.120Z,6.25
2023-03-12T06:16:33.096Z,8.00
2023-03-12T06:19:21.065Z,9.98
2023-03-12T06:22:08.067Z,6.28
2023-03-12T06:24:48.170Z,6.78
2023-03-12T06:27:35.065Z,7.45
2023-03-12T06:30:24.067Z,7.32
2023-03-12T06:33:14.071Z,8.80
2023-03-12T06:35:54.292Z,11.65
2023-03-12T06:38:42.060Z,8.80
2023-03-12T06:41:24.138Z,6.97
2023-03-12T06:44:12.111Z,10.30
2023-03-12T06:46:59.062Z,9.63
2023-03-12T06:49:46.149Z,7.97
2023-03-12T06:52:26.058Z,6.03
2023-03-12T06:55:07.201Z,8.18
2023-03-12T06:57:54.074Z,11.30
2023-03-12T07:00:35.082Z,8.38
2023-03-12T07:06:03.086Z,8.07
2023-03-12T07:08:50.093Z,9.75
2023-03-12T07:11:30.605Z,7.45
2023-03-12T07:14:17.065Z,8.50
2023-03-12T07:17:04.239Z,7.38
2023-03-12T07:19:44.066Z,9.85
2023-03-12T07:22:24.657Z,6.00
2023-03-12T07:25:11.070Z,7.68
2023-03-12T07:27:51.559Z,10.98
2023-03-12T07:30:40.077Z,7.65
2023-03-12T07:33:28.288Z,9.18
2023-03-12T07:36:09.211Z,9.50
2023-03-12T07:41:36.096Z,10.55
2023-03-12T07:44:16.629Z,8.27
2023-03-12T07:47:20.714Z,7.43
2023-03-12T07:50:04.018Z,9.02
2023-03-12T07:55:33.057Z,9.18
2023-03-12T07:58:20.140Z,7.10
2023-03-12T08:01:07.537Z,6.43
2023-03-12T08:03:47.593Z,8.13
2023-03-12T08:06:35.050Z,7.53
2023-03-12T08:09:23.074Z,9.20
2023-03-12T08:12:03.793Z,7.35
2023-03-12T08:14:50.095Z,8.75
2023-03-12T08:17:30.702Z,7.38
2023-03-12T08:20:17.056Z,7.05
2023-03-12T08:23:04.122Z,6.15
2023-03-12T08:25:45.064Z,7.05
2023-03-12T08:28:32.069Z,7.32
2023-03-12T08:31:13.175Z,7.35
2023-03-12T08:34:00.077Z,8.68
2023-03-12T08:36:40.201Z,8.27
2023-03-12T08:39:27.054Z,6.80
2023-03-12T08:42:07.722Z,6.93
2023-03-12T08:44:54.048Z,10.18
2023-03-12T08:47:34.129Z,8.15
2023-03-12T08:50:23.059Z,7.82
2023-03-12T08:53:03.132Z,7.90
2023-03-12T08:55:50.076Z,7.28
2023-03-12T08:58:39.067Z,5.90
2023-03-12T09:01:26.081Z,8.82
2023-03-12T09:04:06.243Z,8.77
2023-03-12T09:06:53.096Z,8.80
2023-03-12T09:09:40.060Z,7.72
2023-03-12T09:12:27.074Z,9.50
2023-03-12T09:15:14.095Z,7.82
2023-03-12T09:17:55.799Z,7.43
2023-03-12T09:23:22.859Z,7.22
2023-03-12T09:26:09.070Z,8.85
2023-03-12T09:28:57.054Z,11.05
2023-03-12T09:31:37.174Z,8.77
2023-03-12T09:34:24.079Z,11.02
2023-03-12T09:37:04.191Z,11.18
2023-03-12T09:39:51.073Z,9.43
2023-03-12T09:42:38.120Z,12.25
2023-03-12T09:45:36.069Z,10.10
2023-03-12T09:48:23.125Z,11.32
2023-03-12T09:51:23.055Z,10.52
2023-03-12T09:54:07.133Z,11.15
2023-03-12T09:56:54.066Z,10.45
2023-03-12T09:59:42.073Z,12.18
2023-03-12T10:02:41.093Z,19.20
2023-03-12T10:05:36.084Z,10.32
2023-03-12T10:08:43.080Z,10.55
2023-03-12T10:11:57.080Z,8.77
2023-03-12T10:15:12.075Z,9.38
2023-03-12T10:18:15.202Z,11.27
2023-03-12T10:21:20.070Z,12.93
2023-03-12T10:24:31.415Z,12.40
2023-03-12T10:27:22.077Z,10.23
2023-03-12T10:30:11.122Z,11.00
2023-03-12T10:32:56.110Z,10.38
2023-03-12T10:35:44.235Z,12.73
2023-03-12T10:38:31.080Z,9.27
2023-03-12T10:44:06.088Z,9.60
2023-03-12T10:46:49.630Z,10.38
2023-03-12T10:49:36.057Z,10.20
2023-03-12T10:52:26.090Z,10.63
2023-03-12T10:55:19.120Z,10.73
2023-03-12T10:58:06.075Z,10.60
2023-03-12T11:03:41.082Z,10.27
2023-03-12T11:06:36.139Z,12.82
2023-03-12T11:09:26.068Z,12.82
2023-03-12T11:12:06.135Z,11.95
2023-03-12T11:14:53.060Z,10.85
2023-03-12T11:20:32.070Z,10.77
2023-03-12T11:23:31.113Z,13.52
2023-03-12T11:26:23.070Z,11.05
2023-03-12T11:29:11.178Z,9.88
2023-03-12T11:32:20.159Z,12.40
2023-03-12T11:35:00.132Z,9.95
2023-03-12T11:38:02.087Z,15.02
2023-03-12T11:41:19.190Z,12.43
2023-03-12T11:44:23.079Z,12.70
2023-03-12T11:47:28.085Z,10.63
2023-03-12T11:50:15.059Z,10.70
2023-03-12T11:56:03.618Z,10.27
2023-03-12T11:58:59.090Z,12.48
2023-03-12T12:02:04.602Z,10.57
2023-03-12T12:05:13.076Z,9.95
2023-03-12T12:08:30.145Z,13.85
2023-03-12T12:11:35.160Z,12.38
2023-03-12T12:14:47.109Z,12.05
2023-03-12T12:17:57.080Z,13.48
2023-03-12T12:21:00.106Z,16.33
2023-03-12T12:23:54.971Z,11.98
2023-03-12T12:26:44.081Z,11.02
2023-03-12T12:30:05.087Z,13.10
2023-03-12T12:33:37.075Z,13.48
2023-03-12T12:36:25.088Z,13.07
2023-03-12T12:39:18.147Z,15.13
2023-03-12T12:42:11.095Z,13.25
2023-03-12T12:44:57.135Z,13.45
2023-03-12T12:47:52.091Z,14.13
2023-03-12T12:50:37.194Z,13.02
2023-03-12T12:53:40.071Z,10.38
2023-03-12T12:57:03.098Z,14.32
2023-03-12T12:59:56.158Z,14.98
2023-03-12T13:02:40.095Z,15.15
2023-03-12T13:05:48.074Z,15.15
2023-03-12T13:08:46.151Z,17.77
2023-03-12T13:11:47.078Z,14.98
2023-03-12T13:14:41.189Z,15.80
2023-03-12T13:18:06.078Z,15.57
2023-03-12T13:21:16.187Z,14.57
2023-03-12T13:24:32.097Z,18.50
2023-03-12T13:27:29.149Z,16.92
2023-03-12T13:30:53.203Z,24.75
2023-03-12T13:33:45.258Z,16.80
2023-03-12T13:36:40.094Z,15.27
2023-03-12T13:39:23.169Z,19.38
2023-03-12T13:42:43.088Z,19.38
2023-03-12T13:45:35.469Z,14.73
2023-03-12T13:48:26.114Z,16.65
2023-03-12T13:51:17.148Z,17.13
2023-03-12T13:54:09.094Z,19.15
2023-03-12T13:56:54.154Z,18.58
2023-03-12T13:59:41.095Z,19.75
2023-03-12T14:05:20.096Z,19.75
2023-03-12T14:08:43.093Z,19.50
2023-03-12T14:12:12.188Z,15.68
2023-03-12T14:15:29.119Z,19.52
2023-03-12T14:18:24.190Z,19.13
2023-03-12T14:21:13.106Z,18.33
2023-03-12T14:24:04.940Z,22.08
2023-03-12T14:26:46.097Z,20.17
2023-03-12T14:29:37.072Z,22.65
2023-03-12T14:32:34.142Z,20.23
2023-03-12T14:35:22.573Z,21.83
2023-03-12T14:38:20.094Z,20.55
2023-03-12T14:41:13.090Z,19.27
2023-03-12T14:44:01.149Z,21.35
2023-03-12T14:46:41.174Z,18.98
2023-03-12T14:49:21.657Z,16.90
2023-03-12T14:52:09.106Z,14.93
2023-03-12T14:55:01.969Z,15.63
2023-03-12T14:57:49.118Z,18.02
2023-03-12T15:03:30.093Z,12.52
2023-03-12T15:06:50.098Z,13.52
2023-03-12T15:09:42.089Z,15.52
2023-03-12T15:12:32.099Z,17.55
2023-03-12T15:15:24.183Z,19.70
2023-03-12T15:18:14.151Z,13.02
2023-03-12T15:20:57.178Z,18.05
2023-03-12T15:23:45.114Z,17.90
2023-03-12T15:26:35.092Z,17.85
2023-03-12T15:29:30.443Z,19.02
2023-03-12T15:32:28.145Z,20.45
2023-03-12T15:35:20.156Z,20.25
2023-03-12T15:38:00.189Z,16.05
2023-03-12T15:40:47.118Z,19.25
2023-03-12T15:46:18.188Z,14.65
2023-03-12T15:49:01.190Z,15.25
2023-03-12T15:51:48.102Z,17.85
2023-03-12T15:57:27.101Z,18.23
2023-03-12T16:00:39.105Z,16.38
2023-03-12T16:03:21.440Z,16.70
2023-03-12T16:06:10.107Z,16.33
2023-03-12T16:11:57.823Z,15.00
2023-03-12T16:14:38.371Z,16.00
2023-03-12T16:17:27.817Z,16.92
2023-03-12T16:20:20.827Z,20.08
2023-03-12T16:23:07.810Z,16.70
2023-03-12T16:28:41.837Z,20.10
2023-03-12T16:31:29.022Z,17.17
2023-03-12T16:36:49.580Z,20.42
2023-03-12T16:39:39.811Z,16.45
2023-03-12T16:42:20.993Z,21.35
2023-03-12T16:45:07.810Z,19.38
2023-03-12T16:50:37.823Z,20.05
2023-03-12T16:53:25.805Z,18.60
2023-03-12T16:56:07.879Z,15.93
2023-03-12T16:58:57.060Z,18.52
2023-03-12T17:01:36.894Z,24.45
2023-03-12T17:04:23.851Z,18.35
2023-03-12T17:10:04.822Z,19.42
2023-03-12T17:12:51.827Z,21.05
2023-03-12T17:18:20.819Z,16.58
2023-03-12T17:23:48.850Z,20.40
2023-03-12T17:26:28.939Z,21.90
2023-03-12T17:29:16.816Z,19.25
2023-03-12T17:31:56.930Z,18.80
2023-03-12T17:34:43.793Z,19.10
2023-03-12T17:40:15.847Z,20.15
2023-03-12T17:43:02.852Z,20.73
2023-03-12T17:48:36.821Z,17.70
2023-03-12T17:54:03.924Z,16.67
2023-03-12T17:56:50.818Z,23.20
2023-03-12T18:02:20.839Z,17.83
2023-03-12T18:05:00.922Z,18.25
2023-03-12T18:07:47.848Z,18.63
2023-03-12T18:13:14.821Z,15.30
2023-03-12T18:18:52.124Z,15.02
2023-03-12T18:21:38.863Z,12.52
2023-03-12T18:27:06.845Z,14.38
2023-03-12T18:29:48.354Z,12.43
2023-03-12T18:32:34.909Z,13.65
2023-03-12T18:38:02.941Z,14.30
2023-03-12T18:40:49.812Z,11.40
2023-03-12T18:46:17.846Z,11.27
2023-03-12T18:49:04.823Z,12.30
2023-03-12T18:51:55.810Z,8.40
2023-03-12T18:54:35.861Z,10.30
2023-03-12T18:57:22.913Z,13.10
2023-03-12T19:02:46.499Z,10.57
2023-03-12T19:05:33.822Z,9.88
2023-03-12T19:11:15.845Z,10.50
2023-03-12T19:14:05.842Z,11.40
2023-03-12T19:16:52.817Z,10.10
2023-03-12T19:22:28.843Z,9.80
2023-03-12T19:25:08.884Z,8.60
2023-03-12T19:27:55.860Z,9.30
2023-03-12T19:30:35.878Z,7.93
2023-03-12T19:33:22.833Z,10.73
2023-03-12T19:38:50.329Z,9.57
2023-03-12T19:41:36.829Z,12.07
2023-03-12T19:44:23.811Z,9.02
2023-03-12T19:47:13.834Z,11.73
2023-03-12T19:49:54.311Z,9.10
2023-03-12T19:52:40.834Z,10.07
2023-03-12T19:58:07.827Z,9.05
2023-03-12T20:03:34.915Z,13.02
2023-03-12T20:09:01.818Z,8.98
2023-03-12T20:11:48.914Z,11.63
2023-03-12T20:17:09.321Z,9.52
2023-03-12T20:19:55.857Z,12.98
2023-03-12T20:25:22.840Z,17.48
2023-03-12T20:28:03.617Z,13.05
2023-03-12T20:30:51.847Z,18.60
2023-03-12T20:33:38.834Z,11.40
2023-03-12T20:36:27.818Z,17.05
2023-03-12T20:39:08.694Z,14.88
2023-03-12T20:41:55.817Z,16.85
2023-03-12T20:47:22.826Z,12.43
2023-03-12T20:50:09.885Z,17.55
2023-03-12T20:55:37.828Z,15.85
2023-03-12T20:58:17.889Z,16.83
2023-03-12T21:01:07.873Z,22.02
2023-03-12T21:03:47.923Z,15.77
2023-03-12T21:06:34.849Z,18.38
2023-03-12T21:12:01.841Z,21.25
2023-03-12T21:14:49.828Z,18.48
2023-03-12T21:17:37.866Z,16.40
2023-03-12T21:20:19.898Z,18.15
2023-03-12T21:23:07.912Z,22.05
2023-03-12T21:25:47.894Z,24.23
2023-03-12T21:28:35.823Z,16.58
2023-03-12T21:31:25.833Z,19.83
2023-03-12T21:34:12.876Z,16.60
2023-03-12T21:36:52.847Z,19.33
2023-03-12T21:39:34.492Z,18.58
2023-03-12T21:45:07.899Z,16.23
2023-03-12T21:47:47.822Z,16.85
2023-03-12T21:50:28.348Z,15.50
2023-03-12T21:53:23.512Z,21.35
2023-03-12T21:56:06.429Z,23.08
2023-03-12T21:58:52.825Z,22.02
2023-03-12T22:01:39.909Z,16.27
2023-03-12T22:04:19.951Z,21.63
2023-03-12T22:07:06.835Z,20.88
2023-03-12T22:12:33.848Z,18.63
2023-03-12T22:15:14.905Z,17.98
2023-03-12T22:18:01.827Z,15.38
2023-03-12T22:20:48.835Z,24.10
2023-03-12T22:26:16.838Z,16.08
2023-03-12T22:28:58.047Z,21.98
2023-03-12T22:31:44.823Z,22.52
2023-03-12T22:34:31.840Z,19.77
2023-03-12T22:40:13.825Z,14.85
2023-03-12T22:43:00.887Z,21.70
2023-03-12T22:48:21.458Z,24.45
2023-03-12T22:51:07.823Z,21.77
2023-03-12T22:53:54.830Z,19.70
2023-03-12T22:59:21.817Z,19.10
2023-03-12T23:02:01.991Z,16.55
2023-03-12T23:04:48.881Z,21.45
2023-03-12T23:07:28.911Z,23.20
2023-03-12T23:10:16.845Z,13.90
2023-03-12T23:13:04.372Z,18.25
2023-03-12T23:15:43.870Z,27.13
2023-03-12T23:18:24.314Z,21.42
2023-03-12T23:21:32.841Z,21.65
2023-03-12T23:24:21.423Z,18.90
2023-03-12T23:27:07.833Z,16.33
2023-03-12T23:29:49.356Z,19.40
2023-03-12T23:32:35.826Z,19.00
2023-03-12T23:35:16.351Z,15.32
2023-03-12T23:38:03.823Z,16.20
2023-03-12T23:40:52.852Z,16.38
2023-03-12T23:43:32.890Z,18.48
2023-03-12T23:46:20.905Z,16.80
2023-03-12T23:49:08.842Z,15.45
2023-03-12T23:51:55.830Z,16.13
2023-03-12T23:54:35.968Z,15.32
2023-03-12T23:57:22.824Z,15.95
